Time;durP1;ratioP1;P1;durP2;ratioP2;P2;SDS_P1;SDS_P2;PMS_P1;PMS_P2;Temp;Humidity;BMP_temperature;BMP_pressure;BME280_temperature;BME280_humidity;BME280_pressure;Samples;Min_cycle;Max_cycle;Signal;HPM_P1;HPM_P2
2021/10/15 00:01:29;;;;;;;12.57;5.10;;;14.50;95.60;;;;;;5093794;28;20031;-78
2021/10/15 00:03:55;;;;;;;13.27;4.88;;;14.50;95.60;;;;;;5092550;28;20437;-77
2021/10/15 00:06:20;;;;;;;13.15;5.40;;;14.50;95.70;;;;;;5093793;28;20463;-77
2021/10/15 00:08:46;;;;;;;11.18;5.10;;;14.50;95.70;;;;;;5092419;28;20063;-77
2021/10/15 00:11:12;;;;;;;14.70;5.03;;;14.50;95.70;;;;;;5092400;28;20031;-78
2021/10/15 00:13:37;;;;;;;22.67;6.22;;;14.50;95.80;;;;;;5092134;28;20035;-77
2021/10/15 00:16:03;;;;;;;14.00;5.10;;;14.60;95.80;;;;;;5092165;28;20459;-76
2021/10/15 00:18:29;;;;;;;12.35;5.30;;;14.50;95.80;;;;;;5092145;28;20119;-76
2021/10/15 00:20:55;;;;;;;13.27;5.18;;;14.50;95.80;;;;;;5093448;28;20379;-78
2021/10/15 00:23:20;;;;;;;13.80;5.80;;;14.50;95.90;;;;;;5093397;28;20161;-78
2021/10/15 00:25:46;;;;;;;13.48;5.47;;;14.50;96.00;;;;;;5092043;28;20047;-77
2021/10/15 00:28:12;;;;;;;16.35;5.75;;;14.50;96.10;;;;;;5091987;28;20301;-77
2021/10/15 00:30:38;;;;;;;14.45;6.13;;;14.50;96.10;;;;;;5091875;28;20418;-77
2021/10/15 00:33:03;;;;;;;18.83;6.57;;;14.50;96.20;;;;;;5093076;28;20058;-77
2021/10/15 00:35:29;;;;;;;16.38;6.13;;;14.50;96.30;;;;;;5092871;28;20028;-79
2021/10/15 00:37:55;;;;;;;14.60;6.20;;;14.50;96.40;;;;;;5093222;28;20032;-77
2021/10/15 00:40:21;;;;;;;16.75;6.60;;;14.50;96.50;;;;;;5092016;28;20115;-77
2021/10/15 00:42:47;;;;;;;10.23;4.95;;;14.40;96.60;;;;;;5091025;28;20028;-77
2021/10/15 00:45:13;;;;;;;10.23;5.15;;;14.40;96.70;;;;;;5075095;28;20036;-78
2021/10/15 00:47:38;;;;;;;15.10;6.72;;;14.30;96.70;;;;;;5092925;28;20040;-78
2021/10/15 00:50:05;;;;;;;14.70;6.72;;;14.30;96.90;;;;;;5091403;28;20595;-78
2021/10/15 00:52:31;;;;;;;17.30;6.72;;;14.30;97.00;;;;;;5091372;28;20074;-78
2021/10/15 00:54:57;;;;;;;15.85;6.82;;;14.20;97.10;;;;;;5091542;28;20020;-78
2021/10/15 00:57:23;;;;;;;12.80;6.60;;;14.20;97.20;;;;;;5074508;28;20123;-78
2021/10/15 00:59:49;;;;;;;12.05;5.63;;;14.30;97.30;;;;;;5091471;28;20024;-78
2021/10/15 01:02:15;;;;;;;13.73;6.30;;;14.30;97.30;;;;;;5092670;28;20032;-78
2021/10/15 01:04:41;;;;;;;14.85;6.68;;;14.30;97.30;;;;;;5091219;28;20093;-77
2021/10/15 01:07:07;;;;;;;9.00;4.25;;;14.30;97.40;;;;;;5091149;28;20112;-78
2021/10/15 01:09:32;;;;;;;7.40;2.90;;;14.20;97.40;;;;;;5092595;28;20093;-76
2021/10/15 01:12:01;;;;;;;7.28;2.10;;;14.10;97.40;;;;;;5057649;28;20092;-77
2021/10/15 01:14:28;;;;;;;5.97;1.60;;;14.00;97.30;;;;;;5090862;28;20106;-77
2021/10/15 01:16:54;;;;;;;6.95;1.48;;;13.90;97.10;;;;;;5091016;28;20031;-77
2021/10/15 01:19:19;;;;;;;7.15;1.15;;;13.70;97.20;;;;;;5092371;28;20028;-77
2021/10/15 01:21:45;;;;;;;4.30;1.10;;;13.50;97.20;;;;;;5090943;28;20029;-78
2021/10/15 01:24:11;;;;;;;2.88;1.25;;;13.50;97.20;;;;;;5090845;28;20024;-77
2021/10/15 01:26:36;;;;;;;6.18;1.10;;;13.50;97.20;;;;;;5090886;28;20106;-78
2021/10/15 01:29:02;;;;;;;6.68;1.30;;;13.50;97.10;;;;;;5090770;28;20450;-79
2021/10/15 01:31:28;;;;;;;4.40;1.17;;;13.50;97.00;;;;;;5091948;28;20040;-78
2021/10/15 01:33:56;;;;;;;4.90;1.10;;;13.50;96.90;;;;;;5091952;28;20151;-78
2021/10/15 01:36:22;;;;;;;6.68;1.35;;;13.60;96.90;;;;;;5091803;28;20386;-79
2021/10/15 01:38:48;;;;;;;4.85;1.30;;;13.60;96.90;;;;;;5091830;28;20024;-78
2021/10/15 01:41:14;;;;;;;5.18;1.45;;;13.70;96.80;;;;;;5091755;28;20030;-79
2021/10/15 01:43:40;;;;;;;3.47;1.25;;;13.70;96.80;;;;;;5090408;28;20081;-78
2021/10/15 01:46:05;;;;;;;7.53;1.20;;;13.70;96.80;;;;;;5090483;28;20059;-78
2021/10/15 01:48:31;;;;;;;4.80;1.38;;;13.70;96.70;;;;;;5091775;28;20036;-78
2021/10/15 01:50:57;;;;;;;3.85;1.27;;;13.70;96.70;;;;;;5073517;28;20055;-78
2021/10/15 01:53:23;;;;;;;;;;;13.70;96.70;;;;;;5090657;28;20032;-78
2021/10/15 01:55:49;;;;;;;5.82;1.17;;;13.70;96.60;;;;;;5090408;28;19908;-78
2021/10/15 01:58:17;;;;;;;7.60;1.27;;;13.70;96.40;;;;;;5090428;28;20039;-78
2021/10/15 02:00:43;;;;;;;7.45;1.60;;;13.60;96.40;;;;;;5091669;28;20390;-78
2021/10/15 02:03:08;;;;;;;4.78;1.33;;;13.60;96.30;;;;;;5090247;28;20035;-78
2021/10/15 02:05:34;;;;;;;5.05;1.13;;;13.50;96.30;;;;;;5090266;28;20040;-79
2021/10/15 02:08:00;;;;;;;6.75;1.35;;;13.50;96.20;;;;;;5090391;28;20027;-79
2021/10/15 02:10:26;;;;;;;4.85;1.45;;;13.50;96.20;;;;;;5090151;28;20036;-78
2021/10/15 02:12:52;;;;;;;9.05;1.90;;;13.50;96.10;;;;;;5091268;28;20039;-79
2021/10/15 02:15:18;;;;;;;3.88;1.40;;;13.50;96.20;;;;;;5090126;28;20367;-77
2021/10/15 02:17:44;;;;;;;;;;;13.40;96.00;;;;;;5090541;28;20066;-79
2021/10/15 02:20:12;;;;;;;5.68;1.30;;;13.50;96.10;;;;;;5090099;28;19927;-79
2021/10/15 02:22:43;;;;;;;5.00;1.20;;;13.50;95.90;;;;;;5091301;28;20024;-79
2021/10/15 02:25:10;;;;;;;6.53;1.50;;;13.50;95.90;;;;;;5091459;28;20085;-79
2021/10/15 02:27:36;;;;;;;7.25;1.40;;;13.50;95.90;;;;;;5089903;28;20040;-79
2021/10/15 02:30:04;;;;;;;8.73;1.45;;;13.50;95.80;;;;;;5091462;28;20085;-79
2021/10/15 02:32:29;;;;;;;5.82;1.40;;;13.60;95.80;;;;;;5091289;28;20047;-79
2021/10/15 02:34:55;;;;;;;9.38;2.53;;;13.50;95.70;;;;;;5073276;28;20032;-79
2021/10/15 02:37:21;;;;;;;6.15;1.63;;;13.60;95.70;;;;;;5073279;28;20032;-79
2021/10/15 02:39:46;;;;;;;7.10;1.50;;;13.60;95.70;;;;;;5073139;28;20058;-79
2021/10/15 02:42:12;;;;;;;7.00;1.38;;;13.60;95.60;;;;;;5073113;28;20440;-79
2021/10/15 02:44:38;;;;;;;5.18;1.30;;;13.60;95.60;;;;;;5089872;28;20067;-79
2021/10/15 02:47:04;;;;;;;6.60;1.83;;;13.60;95.60;;;;;;5089855;28;20074;-79
2021/10/15 02:49:29;;;;;;;7.50;1.60;;;13.60;95.70;;;;;;5089752;28;20047;-79
2021/10/15 02:51:55;;;;;;;10.60;2.33;;;13.60;95.70;;;;;;5090928;28;20490;-79
2021/10/15 02:54:21;;;;;;;11.23;1.90;;;13.70;95.60;;;;;;5089576;28;20225;-79
2021/10/15 02:56:46;;;;;;;8.90;1.85;;;13.60;95.60;;;;;;5089831;28;20021;-79
2021/10/15 02:59:12;;;;;;;9.63;1.50;;;13.70;95.60;;;;;;5073190;28;20028;-79
2021/10/15 03:01:38;;;;;;;5.57;1.25;;;13.60;95.60;;;;;;5091056;28;20111;-79
2021/10/15 03:04:06;;;;;;;7.60;1.48;;;13.70;95.60;;;;;;5089532;28;20055;-78
2021/10/15 03:06:32;;;;;;;7.70;1.50;;;13.70;95.50;;;;;;5092204;28;20485;-79
2021/10/15 03:08:57;;;;;;;;;;;13.60;95.50;;;;;;5095245;28;20095;-80
2021/10/15 03:11:23;;;;;;;9.13;1.48;;;13.60;95.60;;;;;;5093453;28;20008;-79
2021/10/15 03:13:49;;;;;;;7.63;1.70;;;13.60;95.50;;;;;;5076564;28;20113;-79
2021/10/15 03:16:14;;;;;;;4.78;1.48;;;13.60;95.50;;;;;;5094687;28;20101;-78
2021/10/15 03:18:40;;;;;;;8.88;1.38;;;13.60;95.50;;;;;;5093583;28;20031;-79
2021/10/15 03:21:06;;;;;;;8.02;1.40;;;13.60;95.60;;;;;;5094589;28;20031;-79
2021/10/15 03:23:31;;;;;;;9.75;1.83;;;13.60;95.60;;;;;;5093253;28;20035;-78
2021/10/15 03:25:57;;;;;;;6.32;1.92;;;13.50;95.60;;;;;;5094602;28;20028;-78
2021/10/15 03:28:23;;;;;;;8.55;1.60;;;13.60;95.60;;;;;;5076381;28;20291;-79
2021/10/15 03:30:48;;;;;;;7.78;1.75;;;13.60;95.70;;;;;;5059628;28;20032;-80
2021/10/15 03:33:14;;;;;;;8.50;1.73;;;13.50;95.70;;;;;;5093061;28;20110;-78
2021/10/15 03:35:40;;;;;;;6.07;1.65;;;13.50;95.70;;;;;;5093205;28;20041;-79
2021/10/15 03:38:06;;;;;;;7.65;2.40;;;13.50;95.60;;;;;;5094317;28;20024;-78
2021/10/15 03:40:31;;;;;;;9.93;3.17;;;13.50;95.60;;;;;;5094240;28;20095;-79
2021/10/15 03:42:57;;;;;;;8.40;1.65;;;13.50;95.60;;;;;;5094337;28;20099;-78
2021/10/15 03:45:23;;;;;;;9.20;1.85;;;13.50;95.60;;;;;;5075831;28;20032;-78
2021/10/15 03:47:48;;;;;;;9.90;1.80;;;13.50;95.60;;;;;;5075993;28;20032;-79
2021/10/15 03:50:15;;;;;;;9.88;1.50;;;13.50;95.50;;;;;;5075776;28;20036;-80
2021/10/15 03:52:41;;;;;;;5.85;1.73;;;13.50;95.40;;;;;;5092084;28;20585;-79
2021/10/15 03:55:08;;;;;;;;;;;13.40;95.40;;;;;;5092760;28;20372;-79
2021/10/15 03:57:35;;;;;;;8.55;1.90;;;13.50;95.40;;;;;;5092340;28;20358;-78
2021/10/15 04:00:05;;;;;;;10.32;2.13;;;13.40;95.30;;;;;;5075920;28;20063;-78
2021/10/15 04:02:31;;;;;;;9.52;1.77;;;13.40;95.40;;;;;;5093801;28;20028;-79
2021/10/15 04:04:57;;;;;;;10.23;1.52;;;13.30;95.40;;;;;;5092558;28;20031;-79
2021/10/15 04:07:22;;;;;;;11.63;1.65;;;13.30;95.30;;;;;;5092469;28;20115;-79
2021/10/15 04:09:48;;;;;;;7.97;1.63;;;13.30;95.30;;;;;;5092478;28;20483;-79
2021/10/15 04:12:14;;;;;;;7.82;1.52;;;13.20;95.30;;;;;;5075565;28;20483;-79
2021/10/15 04:14:40;;;;;;;8.77;2.47;;;13.20;95.20;;;;;;5092239;28;20459;-78
2021/10/15 04:17:05;;;;;;;7.90;1.73;;;13.20;95.20;;;;;;5074462;28;20024;-80
2021/10/15 04:19:31;;;;;;;11.77;1.90;;;13.20;95.10;;;;;;5092245;28;20024;-78
2021/10/15 04:21:57;;;;;;;6.43;1.50;;;13.10;95.00;;;;;;5092153;28;20113;-78
2021/10/15 04:24:22;;;;;;;7.18;1.83;;;13.10;95.00;;;;;;5075163;28;20493;-78
2021/10/15 04:26:48;;;;;;;9.82;2.45;;;13.00;95.00;;;;;;5093346;28;20028;-80
2021/10/15 04:29:14;;;;;;;7.53;1.52;;;12.90;94.90;;;;;;5075286;28;20042;-78
2021/10/15 04:31:39;;;;;;;12.38;1.75;;;12.90;94.90;;;;;;5093145;28;20308;-79
2021/10/15 04:34:05;;;;;;;10.32;2.20;;;12.90;95.00;;;;;;5093176;28;20020;-79
2021/10/15 04:36:32;;;;;;;7.47;1.73;;;12.80;95.00;;;;;;5092947;28;20059;-76
2021/10/15 04:38:57;;;;;;;7.93;1.67;;;12.80;95.00;;;;;;5074866;28;20028;-79
2021/10/15 04:41:23;;;;;;;12.40;2.33;;;12.80;94.90;;;;;;5091747;28;20020;-80
2021/10/15 04:43:49;;;;;;;6.57;1.58;;;12.70;94.90;;;;;;5074965;28;20032;-79
2021/10/15 04:46:15;;;;;;;;;;;12.70;94.90;;;;;;5091959;28;20550;-78
2021/10/15 04:48:41;;;;;;;6.50;1.35;;;12.60;94.90;;;;;;5093141;28;19986;-78
2021/10/15 04:51:06;;;;;;;9.35;1.83;;;12.60;94.90;;;;;;5074666;28;20083;-79
2021/10/15 04:53:32;;;;;;;6.45;1.30;;;12.50;94.90;;;;;;5091414;28;20124;-78
2021/10/15 04:55:58;;;;;;;6.30;1.40;;;12.50;95.20;;;;;;5092750;28;20032;-79
2021/10/15 04:58:23;;;;;;;6.93;1.55;;;12.60;95.00;;;;;;5074483;28;20461;-79
2021/10/15 05:00:49;;;;;;;10.57;2.42;;;12.60;95.10;;;;;;5092844;28;20024;-78
2021/10/15 05:03:15;;;;;;;8.35;1.40;;;12.70;95.00;;;;;;5092827;28;20040;-78
2021/10/15 05:05:41;;;;;;;11.85;1.90;;;12.70;94.90;;;;;;5091296;28;20032;-78
2021/10/15 05:08:10;;;;;;;9.73;1.73;;;12.70;94.90;;;;;;5091306;28;20081;-78
2021/10/15 05:10:39;;;;;;;9.98;1.45;;;12.70;94.90;;;;;;5091290;28;20024;-79
2021/10/15 05:13:05;;;;;;;4.18;1.25;;;12.70;94.80;;;;;;5091283;28;20032;-78
2021/10/15 05:15:30;;;;;;;7.18;1.50;;;12.70;94.80;;;;;;5092360;28;20047;-79
2021/10/15 05:17:56;;;;;;;8.80;1.23;;;12.70;94.80;;;;;;5091191;28;20024;-79
2021/10/15 05:20:22;;;;;;;10.95;1.88;;;12.70;94.80;;;;;;5091041;28;20035;-78
2021/10/15 05:22:47;;;;;;;14.30;1.80;;;12.70;94.70;;;;;;5090981;28;20047;-79
2021/10/15 05:25:14;;;;;;;8.02;1.77;;;12.70;94.60;;;;;;5090856;28;20390;-79
2021/10/15 05:27:40;;;;;;;12.43;1.42;;;12.70;94.60;;;;;;5090591;28;20398;-79
2021/10/15 05:30:08;;;;;;;10.35;1.77;;;12.70;94.60;;;;;;5091795;28;20032;-79
2021/10/15 05:32:35;;;;;;;8.40;1.60;;;12.70;94.50;;;;;;5092243;28;20032;-79
2021/10/15 05:35:02;;;;;;;7.15;1.50;;;12.70;94.60;;;;;;5090540;28;20029;-79
2021/10/15 05:37:28;;;;;;;6.72;1.50;;;12.70;94.60;;;;;;5090649;28;20488;-79
2021/10/15 05:39:54;;;;;;;12.20;1.73;;;12.70;94.60;;;;;;5090649;28;20027;-79
2021/10/15 05:42:20;;;;;;;10.52;2.10;;;12.60;94.50;;;;;;5073847;28;20034;-79
2021/10/15 05:44:47;;;;;;;11.82;2.28;;;12.60;94.50;;;;;;5090496;28;20081;-79
2021/10/15 05:47:14;;;;;;;8.88;2.00;;;12.60;94.50;;;;;;5090368;28;20110;-79
2021/10/15 05:49:40;;;;;;;11.52;1.92;;;12.50;94.60;;;;;;5091790;28;20342;-79
2021/10/15 05:52:17;;;;;;;10.65;1.77;;;12.50;94.60;;;;;;5089980;28;20053;-79
2021/10/15 05:55:06;;;;;;;10.55;1.95;;;12.50;94.60;;;;;;5090222;28;20127;-78
2021/10/15 06:00:01;;;;;;;12.93;2.00;;;12.40;94.40;;;;;;5090197;28;20024;-78
2021/10/15 06:02:32;;;;;;;8.85;1.67;;;12.40;94.50;;;;;;5057033;28;20024;-79
2021/10/15 06:15:55;;;;;;;11.63;1.92;;;12.30;94.10;;;;;;5081624;28;20040;-79
2021/10/15 06:18:22;;;;;;;9.27;1.58;;;12.20;94.00;;;;;;5072863;28;20036;-79
2021/10/15 06:20:49;;;;;;;12.00;1.67;;;12.20;94.10;;;;;;5090058;28;20032;-79
2021/10/15 06:23:16;;;;;;;5.70;1.25;;;12.20;93.80;;;;;;5089922;28;20042;-79
2021/10/15 06:25:42;;;;;;;10.52;2.03;;;12.20;93.60;;;;;;5089931;28;20073;-78
2021/10/15 06:28:10;;;;;;;9.77;2.20;;;12.20;93.60;;;;;;5089848;28;20111;-79
2021/10/15 06:30:37;;;;;;;8.13;1.40;;;12.10;93.50;;;;;;5089884;28;20036;-78
2021/10/15 06:33:03;;;;;;;9.43;2.45;;;12.10;93.60;;;;;;5091316;28;20095;-78
2021/10/15 06:35:29;;;;;;;9.63;1.80;;;12.10;93.40;;;;;;5089750;28;20115;-78
2021/10/15 06:37:55;;;;;;;11.07;1.73;;;12.00;93.30;;;;;;5091659;28;20016;-79
2021/10/15 06:40:21;;;;;;;5.30;1.40;;;12.00;93.30;;;;;;5092012;28;20046;-78
2021/10/15 06:42:47;;;;;;;;;;;12.00;93.30;;;;;;5094543;28;20036;-79
2021/10/15 06:45:13;;;;;;;9.25;1.60;;;12.00;93.30;;;;;;5094275;28;19909;-78
2021/10/15 06:47:39;;;;;;;;;;;12.00;93.20;;;;;;5095518;28;20100;-79
2021/10/15 06:50:05;;;;;;;9.13;1.48;;;12.00;93.20;;;;;;5076528;28;20014;-80
2021/10/15 06:52:36;;;;;;;8.52;1.65;;;12.00;93.20;;;;;;5094768;28;20048;-78
2021/10/15 06:55:06;;;;;;;7.93;1.58;;;12.00;93.20;;;;;;5093285;28;20048;-79
2021/10/15 06:57:32;;;;;;;7.07;1.83;;;12.00;93.10;;;;;;5076638;28;20024;-80
2021/10/15 06:59:57;;;;;;;7.53;1.98;;;12.00;93.00;;;;;;5093241;28;20283;-78
2021/10/15 07:02:23;;;;;;;5.35;1.65;;;11.90;93.00;;;;;;5093316;28;20066;-77
2021/10/15 07:04:49;;;;;;;6.43;1.30;;;11.90;93.00;;;;;;5092876;28;20115;-78
2021/10/15 07:07:15;;;;;;;9.70;1.70;;;11.90;92.90;;;;;;5093362;28;20040;-77
2021/10/15 07:09:40;;;;;;;10.90;1.70;;;11.90;93.00;;;;;;5093379;28;20028;-77
2021/10/15 07:12:06;;;;;;;9.10;1.50;;;11.90;92.70;;;;;;5092898;28;20103;-78
2021/10/15 07:14:33;;;;;;;10.23;2.00;;;11.90;92.60;;;;;;5075820;28;20485;-78
2021/10/15 07:16:58;;;;;;;6.35;1.35;;;11.90;92.60;;;;;;5076336;28;20427;-77
2021/10/15 07:19:24;;;;;;;6.90;1.40;;;11.80;92.60;;;;;;5093051;28;20032;-78
2021/10/15 07:21:50;;;;;;;6.18;1.33;;;11.70;92.60;;;;;;5093194;28;20028;-78
2021/10/15 07:24:16;;;;;;;8.13;1.42;;;11.60;92.50;;;;;;5094505;28;20499;-79
2021/10/15 07:26:42;;;;;;;9.00;1.60;;;11.50;92.50;;;;;;5094018;28;20040;-78
2021/10/15 07:29:07;;;;;;;10.25;1.63;;;11.30;92.50;;;;;;5092844;28;20119;-78
2021/10/15 07:31:35;;;;;;;8.15;1.17;;;11.30;92.50;;;;;;5075648;28;20382;-78
2021/10/15 07:34:01;;;;;;;9.05;2.08;;;11.20;92.50;;;;;;5093992;28;20418;-78
2021/10/15 07:36:27;;;;;;;;;;;11.00;92.60;;;;;;5094441;28;20028;-79
2021/10/15 07:38:52;;;;;;;7.38;1.45;;;11.00;92.80;;;;;;5093811;28;19965;-79
2021/10/15 07:41:18;;;;;;;12.77;1.73;;;11.00;92.70;;;;;;5094412;28;20074;-78
2021/10/15 07:43:47;;;;;;;11.30;1.90;;;11.00;92.80;;;;;;5076117;28;20183;-78
2021/10/15 07:46:13;;;;;;;15.10;2.17;;;11.10;92.90;;;;;;5059431;28;20085;-78
2021/10/15 07:48:38;;;;;;;7.10;1.88;;;11.10;92.90;;;;;;5094186;28;20036;-79
2021/10/15 07:51:04;;;;;;;9.90;1.80;;;11.10;92.80;;;;;;5091871;28;20067;-78
2021/10/15 07:53:30;;;;;;;7.93;1.33;;;11.10;92.70;;;;;;5092185;28;20032;-78
2021/10/15 07:55:56;;;;;;;7.82;1.42;;;11.10;92.70;;;;;;5091438;28;20081;-79
2021/10/15 07:58:22;;;;;;;8.00;1.85;;;11.20;92.70;;;;;;5091895;28;20028;-79
2021/10/15 08:00:48;;;;;;;12.90;1.88;;;11.20;92.50;;;;;;5092137;28;20471;-78
2021/10/15 08:03:14;;;;;;;7.05;1.60;;;11.30;92.60;;;;;;5093891;28;20028;-78
2021/10/15 08:05:39;;;;;;;5.88;1.27;;;11.40;92.50;;;;;;5075239;28;20028;-78
2021/10/15 08:08:05;;;;;;;8.15;1.88;;;11.50;92.40;;;;;;5093107;28;20118;-79
2021/10/15 08:10:31;;;;;;;7.18;1.40;;;11.50;92.30;;;;;;5093086;28;20158;-80
2021/10/15 08:12:57;;;;;;;8.73;1.88;;;11.90;93.20;;;;;;5091938;28;20458;-80
2021/10/15 08:15:23;;;;;;;;;;;12.80;93.50;;;;;;5092123;28;20020;-78
2021/10/15 08:17:48;;;;;;;7.72;1.60;;;13.80;93.50;;;;;;5093210;28;19904;-79
2021/10/15 08:20:17;;;;;;;339.83;47.53;;;14.40;92.20;;;;;;5074866;28;20028;-78
2021/10/15 08:22:44;;;;;;;40.33;5.63;;;14.40;90.80;;;;;;5093042;28;20493;-80
2021/10/15 08:25:09;;;;;;;10.40;2.10;;;14.30;90.10;;;;;;5079660;28;20038;-80
2021/10/15 08:27:35;;;;;;;11.38;1.58;;;14.20;90.00;;;;;;5095077;28;20110;-81
2021/10/15 08:30:01;;;;;;;9.05;1.98;;;14.60;90.80;;;;;;5085864;28;20124;-81
2021/10/15 08:32:28;;;;;;;5.15;1.20;;;15.50;91.00;;;;;;5101001;28;20032;-81
2021/10/15 08:34:54;;;;;;;7.28;1.60;;;16.60;90.50;;;;;;5082625;28;20103;-80
2021/10/15 08:37:19;;;;;;;6.05;1.40;;;17.60;89.70;;;;;;5105700;28;20109;-80
2021/10/15 08:39:45;;;;;;;6.65;1.75;;;18.50;87.50;;;;;;5112044;28;20036;-81
2021/10/15 08:42:11;;;;;;;9.15;1.48;;;19.20;83.80;;;;;;5111705;28;20034;-82
2021/10/15 08:44:39;;;;;;;;;;;19.80;82.10;;;;;;5113341;28;20119;-82
2021/10/15 08:47:05;;;;;;;9.23;1.20;;;20.40;82.40;;;;;;5111397;28;19912;-79
2021/10/15 08:49:31;;;;;;;9.68;1.70;;;20.90;80.40;;;;;;5111415;28;20065;-80
2021/10/15 08:51:57;;;;;;;;;;;21.20;77.90;;;;;;5112284;28;20047;-81
2021/10/15 08:54:23;;;;;;;6.20;1.40;;;21.50;78.40;;;;;;5112707;28;20345;-80
2021/10/15 08:56:48;;;;;;;7.93;1.17;;;21.90;77.10;;;;;;5098593;28;20081;-79
2021/10/15 08:59:19;;;;;;;;;;;22.40;74.90;;;;;;5091739;28;20039;-80
2021/10/15 09:01:49;;;;;;;7.25;1.35;;;22.70;74.60;;;;;;5091071;28;19908;-79
2021/10/15 09:04:20;;;;;;;6.10;1.40;;;22.90;72.40;;;;;;5092599;28;20055;-80
2021/10/15 09:06:47;;;;;;;8.40;1.17;;;23.10;70.70;;;;;;5076092;28;20024;-81
2021/10/15 09:09:14;;;;;;;4.78;1.45;;;23.60;69.40;;;;;;5094306;28;20024;-78
2021/10/15 09:11:45;;;;;;;6.70;1.55;;;24.00;67.80;;;;;;5100417;28;20038;-79
2021/10/15 09:14:18;;;;;;;7.65;1.30;;;24.20;66.10;;;;;;5114354;28;20458;-77
2021/10/15 09:17:01;;;;;;;6.32;1.10;;;24.40;64.50;;;;;;5114014;28;20034;-79
2021/10/15 09:19:28;;;;;;;6.93;1.50;;;24.40;63.80;;;;;;5114710;28;20071;-79
2021/10/15 09:22:12;;;;;;;5.15;1.30;;;24.80;63.80;;;;;;5114420;28;20030;-82
2021/10/15 09:24:42;;;;;;;9.82;1.90;;;25.30;62.00;;;;;;5114043;28;20677;-75
2021/10/15 09:27:19;;;;;;;5.28;1.00;;;25.50;61.00;;;;;;5110183;28;20073;-79
2021/10/15 09:29:55;;;;;;;6.07;1.30;;;25.40;59.50;;;;;;5099082;28;20024;-79
2021/10/15 09:32:24;;;;;;;6.38;1.30;;;25.30;59.10;;;;;;5101139;28;20111;-79
2021/10/15 09:34:50;;;;;;;6.47;1.50;;;25.30;59.30;;;;;;5095954;28;20466;-79
2021/10/15 09:37:25;;;;;;;7.93;1.00;;;25.30;59.70;;;;;;5094748;28;20031;-79
2021/10/15 09:40:14;;;;;;;6.07;1.20;;;25.50;58.00;;;;;;5108111;28;20064;-78
2021/10/15 09:42:42;;;;;;;7.55;1.13;;;25.60;57.60;;;;;;5108237;28;20066;-79
2021/10/15 09:45:15;;;;;;;6.00;1.20;;;25.80;57.80;;;;;;5100627;28;20031;-78
2021/10/15 09:47:52;;;;;;;7.88;1.30;;;26.00;57.50;;;;;;5096491;28;20366;-78
2021/10/15 09:50:23;;;;;;;9.73;1.65;;;26.30;56.20;;;;;;5100612;28;20545;-79
2021/10/15 09:52:51;;;;;;;7.30;1.60;;;26.60;55.80;;;;;;5096425;28;20047;-81
2021/10/15 09:55:25;;;;;;;6.53;1.85;;;26.80;55.00;;;;;;5106409;28;20322;-80
2021/10/15 09:57:53;;;;;;;7.07;1.35;;;26.70;54.50;;;;;;5101224;28;20111;-79
2021/10/15 10:00:19;;;;;;;17.10;9.18;;;26.90;54.60;;;;;;5102376;28;20478;-78
2021/10/15 10:02:45;;;;;;;7.93;2.50;;;27.10;54.30;;;;;;5095476;28;20028;-79
2021/10/15 10:05:13;;;;;;;6.05;1.40;;;27.50;53.50;;;;;;5094906;28;20020;-79
2021/10/15 10:07:45;;;;;;;5.00;1.20;;;27.70;52.90;;;;;;5099230;28;20464;-79
2021/10/15 10:10:13;;;;;;;6.15;1.30;;;27.90;51.30;;;;;;5102372;28;20016;-79
2021/10/15 10:12:40;;;;;;;8.30;1.30;;;27.70;51.10;;;;;;5102508;28;20024;-80
2021/10/15 10:15:08;;;;;;;7.72;1.80;;;27.70;51.10;;;;;;5100728;28;20019;-81
2021/10/15 10:17:49;;;;;;;4.63;1.05;;;27.50;50.80;;;;;;5107232;28;20081;-83
2021/10/15 10:20:17;;;;;;;4.25;1.08;;;27.50;50.40;;;;;;5096383;28;20036;-82
2021/10/15 10:23:08;;;;;;;11.70;5.43;;;27.40;50.60;;;;;;5069706;28;20036;-82
2021/10/15 10:25:35;;;;;;;5.40;1.10;;;27.50;50.60;;;;;;5097134;28;20016;-82
2021/10/15 10:28:30;;;;;;;9.15;1.75;;;27.70;50.70;;;;;;5075228;28;20062;-82
2021/10/15 10:31:02;;;;;;;8.10;1.50;;;27.80;50.40;;;;;;5078511;28;20055;-76
2021/10/15 10:33:29;;;;;;;25.48;3.25;;;27.90;50.10;;;;;;5101384;28;20019;-84
2021/10/15 10:36:10;;;;;;;9.00;1.88;;;27.70;50.00;;;;;;5081632;28;20036;-84
2021/10/15 10:38:36;;;;;;;12.40;1.92;;;27.50;49.70;;;;;;5109588;28;20032;-83
2021/10/15 10:41:02;;;;;;;5.43;1.45;;;27.60;50.10;;;;;;5112654;28;20374;-78
2021/10/15 10:43:44;;;;;;;6.43;2.25;;;27.90;49.50;;;;;;5100268;28;20035;-80
2021/10/15 10:46:13;;;;;;;7.53;1.38;;;28.00;49.00;;;;;;5102808;28;20390;-76
2021/10/15 10:49:02;;;;;;;11.88;1.75;;;28.20;48.50;;;;;;5092881;28;20055;-82
2021/10/15 10:51:30;;;;;;;12.60;1.98;;;28.40;48.40;;;;;;5085312;28;20067;-82
2021/10/15 10:54:13;;;;;;;6.25;1.00;;;28.40;48.00;;;;;;5099790;28;20020;-81
2021/10/15 10:56:39;;;;;;;5.88;0.90;;;28.20;47.50;;;;;;5112194;28;20031;-82
2021/10/15 10:59:16;;;;;;;3.10;0.90;;;28.00;47.80;;;;;;5112558;28;20027;-79
2021/10/15 11:01:48;;;;;;;7.25;1.45;;;28.00;47.30;;;;;;5104064;28;20062;-79
2021/10/15 11:04:26;;;;;;;6.30;1.15;;;27.80;46.70;;;;;;5098571;28;20028;-80
2021/10/15 11:06:56;;;;;;;7.78;1.40;;;27.20;46.90;;;;;;5106370;28;20114;-79
2021/10/15 11:09:35;;;;;;;6.55;1.25;;;27.00;47.60;;;;;;5104395;28;20355;-79
2021/10/15 11:12:01;;;;;;;4.32;1.00;;;27.00;48.40;;;;;;5099712;28;20069;-81
2021/10/15 11:14:47;;;;;;;10.02;1.80;;;27.30;47.80;;;;;;5098325;28;20020;-79
2021/10/15 11:17:13;;;;;;;13.52;2.10;;;27.30;47.50;;;;;;5111819;28;20024;-79
2021/10/15 11:19:40;;;;;;;5.60;1.50;;;27.30;48.10;;;;;;5101431;28;20034;-79
2021/10/15 11:22:06;;;;;;;7.45;1.67;;;27.60;47.90;;;;;;5098709;28;20055;-80
2021/10/15 11:24:31;;;;;;;6.72;1.23;;;28.00;47.60;;;;;;5083416;28;20391;-82
2021/10/15 11:26:58;;;;;;;6.13;2.05;;;28.30;47.00;;;;;;5072207;28;20016;-78
2021/10/15 11:29:23;;;;;;;5.88;1.48;;;28.30;46.30;;;;;;5101791;28;20028;-77
2021/10/15 11:31:54;;;;;;;5.85;1.35;;;28.10;46.10;;;;;;5103770;28;20031;-78
2021/10/15 11:34:20;;;;;;;8.27;1.50;;;27.80;46.20;;;;;;5104675;28;20481;-78
2021/10/15 11:36:46;;;;;;;7.35;1.70;;;27.40;46.20;;;;;;5107206;28;20020;-78
2021/10/15 11:39:12;;;;;;;5.40;1.20;;;26.80;46.50;;;;;;5099520;28;20036;-78
2021/10/15 11:41:50;;;;;;;7.82;1.45;;;26.10;46.80;;;;;;5110037;28;20111;-80
2021/10/15 11:44:31;;;;;;;4.30;1.52;;;25.70;47.50;;;;;;5106312;28;20127;-79
2021/10/15 11:46:57;;;;;;;5.47;1.50;;;25.90;48.10;;;;;;5108419;28;20069;-80
2021/10/15 11:49:23;;;;;;;5.32;1.40;;;26.20;48.00;;;;;;5102422;28;20035;-80
2021/10/15 11:51:57;;;;;;;7.38;2.10;;;26.20;47.70;;;;;;5107045;28;20351;-78
2021/10/15 11:54:25;;;;;;;8.95;1.83;;;26.00;47.20;;;;;;5111442;28;20059;-81
2021/10/15 11:56:51;;;;;;;5.15;1.10;;;25.80;47.50;;;;;;5111314;28;20023;-79
2021/10/15 11:59:16;;;;;;;7.30;1.55;;;25.60;47.50;;;;;;5084039;28;20019;-83
2021/10/15 12:01:43;;;;;;;8.10;1.48;;;25.20;47.60;;;;;;5076036;28;20111;-82
2021/10/15 12:04:10;;;;;;;5.78;1.35;;;25.00;48.10;;;;;;5114534;28;20077;-82
2021/10/15 12:06:39;;;;;;;4.40;1.60;;;25.30;48.50;;;;;;5096136;28;20031;-82
2021/10/15 12:09:10;;;;;;;7.38;1.70;;;25.90;48.40;;;;;;5105372;28;20019;-81
2021/10/15 12:11:39;;;;;;;6.90;1.33;;;26.50;47.60;;;;;;5105382;28;20046;-79
2021/10/15 12:14:12;;;;;;;5.88;1.40;;;26.50;47.60;;;;;;5110590;28;20023;-80
2021/10/15 12:16:46;;;;;;;4.22;1.13;;;26.60;47.20;;;;;;5100216;28;20027;-82
2021/10/15 12:19:35;;;;;;;6.13;1.23;;;26.60;47.10;;;;;;5109569;28;20031;-81
2021/10/15 12:22:05;;;;;;;6.35;1.27;;;26.50;46.70;;;;;;5110630;28;20467;-80
2021/10/15 12:24:35;;;;;;;7.05;1.27;;;26.20;46.60;;;;;;5095410;28;20458;-79
2021/10/15 12:27:15;;;;;;;8.38;1.30;;;25.70;46.20;;;;;;5096659;28;20043;-81
2021/10/15 12:29:54;;;;;;;7.80;1.88;;;25.00;46.10;;;;;;5095311;28;20012;-77
2021/10/15 12:32:29;;;;;;;6.50;1.13;;;24.30;46.80;;;;;;5111442;28;20023;-79
2021/10/15 12:35:13;;;;;;;6.18;1.50;;;23.90;47.80;;;;;;5113784;28;20163;-77
2021/10/15 12:37:41;;;;;;;6.32;1.65;;;23.40;48.00;;;;;;5113017;28;20069;-78
2021/10/15 12:40:27;;;;;;;7.90;1.45;;;22.90;48.60;;;;;;5112548;28;20028;-77
2021/10/15 12:42:55;;;;;;;4.85;1.20;;;22.50;49.00;;;;;;5114178;28;20466;-78
2021/10/15 12:45:25;;;;;;;4.78;1.08;;;22.20;49.20;;;;;;5113358;28;20023;-75
2021/10/15 12:48:00;;;;;;;7.68;1.40;;;21.80;49.60;;;;;;5096377;28;20393;-80
2021/10/15 12:50:29;;;;;;;3.40;0.80;;;21.60;50.20;;;;;;5115173;28;20025;-79
2021/10/15 12:52:55;;;;;;;4.97;1.13;;;21.50;50.40;;;;;;5113511;28;20048;-79
2021/10/15 12:55:23;;;;;;;5.25;1.00;;;21.40;50.40;;;;;;5114707;28;20037;-82
2021/10/15 12:57:51;;;;;;;7.85;1.30;;;21.10;50.50;;;;;;5113475;28;20030;-81
2021/10/15 13:00:23;;;;;;;8.05;1.50;;;21.00;50.90;;;;;;5113418;28;20044;-81
2021/10/15 13:03:09;;;;;;;5.90;1.65;;;20.80;51.00;;;;;;5113106;28;20381;-77
2021/10/15 13:05:35;;;;;;;7.03;1.07;;;20.80;51.20;;;;;;5114589;28;20114;-79